createdAt,value
2022-10-11T00:01:51.633Z,18.25
2022-10-11T00:04:18.313Z,18.35
2022-10-11T00:06:45.177Z,22.83
2022-10-11T00:09:12.087Z,16.27
2022-10-11T00:11:42.188Z,19.85
2022-10-11T00:14:13.777Z,19.00
2022-10-11T00:16:47.662Z,23.88
2022-10-11T00:19:18.653Z,14.60
2022-10-11T00:21:45.872Z,18.27
2022-10-11T00:24:16.646Z,15.10
2022-10-11T00:26:46.773Z,14.73
2022-10-11T00:29:16.535Z,16.63
2022-10-11T00:31:47.076Z,15.32
2022-10-11T00:34:16.274Z,18.15
2022-10-11T00:36:45.882Z,13.18
2022-10-11T00:39:14.599Z,18.08
2022-10-11T00:41:41.962Z,15.18
2022-10-11T00:44:22.196Z,13.10
2022-10-11T00:47:02.129Z,16.60
2022-10-11T00:49:37.610Z,18.17
2022-10-11T00:52:14.077Z,15.77
2022-10-11T00:54:43.123Z,16.00
2022-10-11T00:57:17.703Z,18.10
2022-10-11T00:59:49.574Z,15.70
2022-10-11T01:04:43.157Z,16.55
2022-10-11T01:07:11.097Z,15.35
2022-10-11T01:09:37.702Z,18.48
2022-10-11T01:12:12.536Z,16.67
2022-10-11T01:15:00.170Z,11.52
2022-10-11T01:17:41.257Z,18.73
2022-10-11T01:20:40.038Z,12.03
2022-10-11T01:23:40.245Z,21.17
2022-10-11T01:26:37.448Z,16.45
2022-10-11T01:29:35.928Z,20.63
2022-10-11T01:32:15.305Z,16.10
2022-10-11T01:35:28.151Z,10.52
2022-10-11T01:38:41.245Z,15.98
2022-10-11T01:41:19.012Z,16.70
2022-10-11T01:43:47.146Z,22.25
2022-10-11T01:46:14.946Z,14.82
2022-10-11T01:48:53.082Z,14.25
2022-10-11T01:51:27.337Z,11.95
2022-10-11T01:54:19.401Z,12.30
2022-10-11T01:57:04.549Z,12.55
2022-10-11T01:59:59.587Z,13.80
2022-10-11T02:02:41.252Z,19.08
2022-10-11T02:05:20.011Z,13.40
2022-10-11T02:07:52.232Z,9.38
2022-10-11T02:10:29.000Z,15.57
2022-10-11T02:13:03.235Z,16.25
2022-10-11T02:15:32.911Z,12.73
2022-10-11T02:18:03.330Z,12.52
2022-10-11T02:20:32.866Z,14.60
2022-10-11T02:23:08.064Z,13.05
2022-10-11T02:25:36.833Z,11.35
2022-10-11T02:28:10.826Z,14.60
2022-10-11T02:30:38.848Z,15.95
2022-10-11T02:33:10.198Z,8.07
2022-10-11T02:35:42.629Z,12.90
2022-10-11T02:38:19.162Z,15.20
2022-10-11T02:40:50.686Z,11.00
2022-10-11T02:43:24.983Z,12.40
2022-10-11T02:45:56.181Z,15.48
2022-10-11T02:48:25.200Z,18.95
2022-10-11T02:50:54.211Z,12.60
2022-10-11T02:53:21.257Z,10.13
2022-10-11T02:55:51.769Z,12.60
2022-10-11T02:58:18.659Z,10.77
2022-10-11T03:00:45.503Z,14.23
2022-10-11T03:03:12.162Z,12.57
2022-10-11T03:05:41.532Z,15.55
2022-10-11T03:08:09.985Z,14.68
2022-10-11T03:10:37.259Z,17.02
2022-10-11T03:13:03.989Z,15.30
2022-10-11T03:15:30.584Z,13.90
2022-10-11T03:17:57.253Z,15.32
2022-10-11T03:20:24.904Z,19.02
2022-10-11T03:22:51.473Z,9.45
2022-10-11T03:25:18.339Z,14.38
2022-10-11T03:27:46.033Z,12.05
2022-10-11T03:30:17.303Z,8.73
2022-10-11T03:32:44.700Z,14.27
2022-10-11T03:35:11.407Z,12.05
2022-10-11T03:37:38.152Z,17.20
2022-10-11T03:40:06.982Z,10.98
2022-10-11T03:42:33.567Z,10.43
2022-10-11T03:45:04.614Z,12.18
2022-10-11T03:47:32.103Z,12.57
2022-10-11T03:49:58.698Z,11.35
2022-10-11T03:52:25.472Z,11.02
2022-10-11T03:54:52.508Z,14.45
2022-10-11T03:57:19.313Z,18.75
2022-10-11T03:59:45.919Z,11.82
2022-10-11T04:02:12.576Z,10.77
2022-10-11T04:04:39.380Z,11.20
2022-10-11T04:07:06.026Z,11.70
2022-10-11T04:09:32.659Z,13.50
2022-10-11T04:12:01.451Z,19.02
2022-10-11T04:14:28.159Z,10.55
2022-10-11T04:16:57.375Z,11.98
2022-10-11T04:19:27.169Z,13.10
2022-10-11T04:21:53.732Z,10.98
2022-10-11T04:24:20.356Z,26.88
2022-10-11T04:26:46.988Z,12.98
2022-10-11T04:29:13.954Z,15.50
2022-10-11T04:31:40.538Z,17.63
2022-10-11T04:34:07.401Z,10.68
2022-10-11T04:36:34.121Z,12.68
2022-10-11T04:39:01.744Z,9.98
2022-10-11T04:41:29.499Z,12.23
2022-10-11T04:43:56.562Z,8.60
2022-10-11T04:46:23.762Z,13.07
2022-10-11T04:48:50.827Z,15.57
2022-10-11T04:51:18.348Z,15.85
2022-10-11T04:53:45.145Z,15.80
2022-10-11T04:56:12.119Z,13.40
2022-10-11T04:58:42.204Z,21.13
2022-10-11T05:01:09.794Z,12.00
2022-10-11T05:03:37.732Z,16.50
2022-10-11T05:06:09.518Z,19.45
2022-10-11T05:08:38.293Z,9.07
2022-10-11T05:11:07.337Z,10.25
2022-10-11T05:13:35.713Z,10.07
2022-10-11T05:16:05.979Z,14.43
2022-10-11T05:18:36.969Z,12.65
2022-10-11T05:21:14.504Z,20.30
2022-10-11T05:23:41.100Z,13.32
2022-10-11T05:26:08.413Z,8.80
2022-10-11T05:28:35.660Z,9.40
2022-10-11T05:31:02.323Z,10.45
2022-10-11T05:33:29.152Z,16.48
2022-10-11T05:35:55.823Z,12.10
2022-10-11T05:38:23.028Z,17.08
2022-10-11T05:40:49.768Z,11.10
2022-10-11T05:43:16.419Z,14.63
2022-10-11T05:45:43.715Z,12.48
2022-10-11T05:48:10.867Z,12.80
2022-10-11T05:50:38.481Z,21.80
2022-10-11T05:53:05.805Z,23.15
2022-10-11T05:55:40.624Z,14.48
2022-10-11T05:58:08.367Z,15.63
2022-10-11T06:00:41.349Z,14.07
2022-10-11T06:03:10.706Z,14.43
2022-10-11T06:05:43.285Z,12.05
2022-10-11T06:08:11.211Z,20.95
2022-10-11T06:10:38.778Z,16.05
2022-10-11T06:13:06.197Z,16.42
2022-10-11T06:15:33.649Z,14.82
2022-10-11T06:18:00.491Z,11.10
2022-10-11T06:20:27.210Z,21.38
2022-10-11T06:22:53.979Z,20.45
2022-10-11T06:25:21.730Z,12.25
2022-10-11T06:27:49.676Z,14.75
2022-10-11T06:30:16.330Z,13.68
2022-10-11T06:32:42.919Z,13.52
2022-10-11T06:35:09.781Z,25.23
2022-10-11T06:37:36.959Z,17.42
2022-10-11T06:40:04.102Z,11.90
2022-10-11T06:42:30.733Z,16.10
2022-10-11T06:44:58.639Z,13.32
2022-10-11T06:47:25.471Z,13.98
2022-10-11T06:49:52.145Z,14.93
2022-10-11T06:52:18.787Z,20.75
2022-10-11T06:54:45.746Z,13.15
2022-10-11T06:57:12.630Z,9.50
2022-10-11T06:59:39.288Z,19.15
2022-10-11T07:02:07.259Z,10.07
2022-10-11T07:04:34.055Z,14.90
2022-10-11T07:07:00.891Z,11.13
2022-10-11T07:09:31.788Z,15.02
2022-10-11T07:12:03.435Z,10.80
2022-10-11T07:14:33.369Z,10.35
2022-10-11T07:17:09.632Z,16.02
2022-10-11T07:19:38.509Z,11.80
2022-10-11T07:22:07.163Z,12.07
2022-10-11T07:24:34.063Z,14.82
2022-10-11T07:27:05.052Z,14.60
2022-10-11T07:29:33.004Z,17.87
2022-10-11T07:32:01.780Z,13.68
2022-10-11T07:34:32.192Z,13.93
2022-10-11T07:37:02.108Z,18.20
2022-10-11T07:39:37.958Z,13.73
2022-10-11T07:42:06.949Z,11.95
2022-10-11T07:44:37.415Z,14.95
2022-10-11T07:47:06.695Z,11.27
2022-10-11T07:49:37.325Z,17.58
2022-10-11T07:52:04.045Z,10.55
2022-10-11T07:54:30.659Z,18.30
2022-10-11T07:56:57.314Z,15.27
2022-10-11T07:59:23.905Z,13.20
2022-10-11T08:01:50.760Z,14.27
2022-10-11T08:04:17.512Z,13.98
2022-10-11T08:06:44.136Z,17.95
2022-10-11T08:09:12.234Z,14.57
2022-10-11T08:11:39.806Z,22.13
2022-10-11T08:14:09.139Z,14.80
2022-10-11T08:16:36.526Z,15.60
2022-10-11T08:19:03.479Z,12.25
2022-10-11T08:21:30.542Z,14.02
2022-10-11T08:23:57.180Z,14.60
2022-10-11T08:26:24.798Z,13.52
2022-10-11T08:28:52.183Z,17.80
2022-10-11T08:31:19.113Z,10.45
2022-10-11T08:33:45.887Z,15.20
2022-10-11T08:36:13.500Z,12.85
2022-10-11T08:38:41.270Z,13.98
2022-10-11T08:41:36.621Z,14.18
2022-10-11T08:44:51.783Z,15.23
2022-10-11T08:47:33.937Z,17.92
2022-10-11T08:50:01.204Z,13.17
2022-10-11T08:52:34.891Z,14.48
2022-10-11T08:55:08.174Z,10.85
2022-10-11T08:57:37.452Z,11.35
2022-10-11T09:00:16.866Z,15.20
2022-10-11T09:03:18.819Z,16.17
2022-10-11T09:06:15.219Z,16.30
2022-10-11T09:09:00.181Z,11.70
2022-10-11T09:12:03.881Z,13.27
2022-10-11T09:15:03.765Z,16.08
2022-10-11T09:17:58.182Z,12.27
2022-10-11T09:20:46.638Z,12.90
2022-10-11T09:23:34.383Z,14.73
2022-10-11T09:26:07.417Z,16.17
2022-10-11T09:29:09.933Z,12.73
2022-10-11T09:34:14.234Z,13.38
2022-10-11T09:37:09.833Z,15.88
2022-10-11T09:39:45.925Z,14.73
2022-10-11T09:42:12.923Z,17.08
2022-10-11T09:44:45.809Z,12.02
2022-10-11T09:47:26.865Z,12.63
2022-10-11T09:50:15.635Z,14.43
2022-10-11T09:53:00.612Z,12.13
2022-10-11T09:55:40.967Z,18.63
2022-10-11T09:58:33.420Z,16.00
2022-10-11T10:01:21.697Z,19.52
2022-10-11T10:04:03.058Z,16.25
2022-10-11T10:06:29.664Z,15.90
2022-10-11T10:09:25.294Z,16.13
2022-10-11T10:11:52.948Z,20.17
2022-10-11T10:14:28.106Z,22.38
2022-10-11T10:17:18.417Z,17.13
2022-10-11T10:19:55.581Z,16.20
2022-10-11T10:22:31.993Z,20.27
2022-10-11T10:25:04.843Z,19.38
2022-10-11T10:27:32.706Z,16.70
2022-10-11T10:30:08.845Z,17.00
2022-10-11T10:33:06.306Z,22.88
2022-10-11T10:35:47.229Z,19.02
2022-10-11T10:38:46.525Z,21.33
2022-10-11T10:41:19.060Z,17.00
2022-10-11T10:43:52.463Z,27.42
2022-10-11T10:46:47.736Z,23.33
2022-10-11T10:49:48.899Z,39.20
2022-10-11T10:52:43.598Z,34.50
2022-10-11T10:55:14.023Z,35.35
2022-10-11T10:57:40.557Z,40.63
2022-10-11T11:00:16.732Z,39.83
2022-10-11T11:03:01.891Z,48.20
2022-10-11T11:05:44.257Z,43.10
2022-10-11T11:08:13.374Z,33.83
2022-10-11T11:11:00.018Z,40.05
2022-10-11T11:13:45.378Z,51.88
2022-10-11T11:16:20.839Z,42.08
2022-10-11T11:18:52.991Z,37.05
2022-10-11T11:21:19.611Z,41.10
2022-10-11T11:24:22.889Z,50.97
2022-10-11T11:27:01.458Z,50.33
2022-10-11T11:30:08.714Z,50.15
2022-10-11T11:32:57.096Z,44.17
2022-10-11T11:35:53.529Z,50.72
2022-10-11T11:38:34.050Z,51.67
2022-10-11T11:41:07.068Z,51.30
2022-10-11T11:43:39.741Z,47.08
2022-10-11T11:46:19.453Z,44.65
2022-10-11T11:48:48.783Z,40.28
2022-10-11T11:51:21.224Z,52.95
2022-10-11T11:54:08.370Z,45.28
2022-10-11T11:57:03.242Z,57.60
2022-10-11T12:00:15.162Z,57.78
2022-10-11T12:02:55.330Z,48.83
2022-10-11T12:05:28.000Z,56.53
2022-10-11T12:08:01.479Z,46.25
2022-10-11T12:10:34.203Z,53.17
2022-10-11T12:13:09.222Z,50.15
2022-10-11T12:15:37.570Z,59.80
2022-10-11T12:18:15.335Z,53.17
2022-10-11T12:21:23.781Z,51.03
2022-10-11T12:23:53.219Z,71.03
2022-10-11T12:26:29.045Z,60.92
2022-10-11T12:29:28.394Z,67.50
2022-10-11T12:32:03.692Z,69.68
2022-10-11T12:34:43.627Z,58.22
2022-10-11T12:37:19.562Z,58.90
2022-10-11T12:39:49.234Z,53.95
2022-10-11T12:42:32.524Z,72.20
2022-10-11T12:45:11.964Z,56.13
2022-10-11T12:48:07.245Z,52.67
2022-10-11T12:50:34.851Z,61.10
2022-10-11T12:53:27.905Z,65.40
2022-10-11T12:56:18.381Z,67.18
2022-10-11T12:58:48.126Z,65.38
2022-10-11T13:01:15.465Z,57.65
2022-10-11T13:03:50.828Z,60.38
2022-10-11T13:06:27.049Z,62.28
2022-10-11T13:08:57.588Z,68.57
2022-10-11T13:11:31.277Z,59.00
2022-10-11T13:14:01.526Z,61.10
2022-10-11T13:16:42.003Z,52.97
2022-10-11T13:19:13.232Z,48.10
2022-10-11T13:21:40.878Z,49.03
2022-10-11T13:24:15.799Z,41.47
2022-10-11T13:26:46.447Z,30.40
2022-10-11T13:29:38.424Z,25.30
2022-10-11T13:32:24.245Z,35.45
2022-10-11T13:35:23.954Z,32.13
2022-10-11T13:37:51.861Z,32.42
2022-10-11T13:40:22.299Z,34.33
2022-10-11T13:42:50.909Z,39.45
2022-10-11T13:45:23.348Z,40.78
2022-10-11T13:47:51.796Z,41.47
2022-10-11T13:50:35.869Z,37.45
2022-10-11T13:53:23.975Z,33.45
2022-10-11T13:56:00.411Z,46.08
2022-10-11T13:58:30.338Z,50.50
2022-10-11T14:01:03.505Z,47.20
2022-10-11T14:03:42.555Z,40.47
2022-10-11T14:06:10.035Z,43.65
2022-10-11T14:08:45.110Z,44.00
2022-10-11T14:11:14.268Z,35.67
2022-10-11T14:13:47.349Z,42.45
2022-10-11T14:16:30.787Z,31.30
2022-10-11T14:19:00.418Z,36.17
2022-10-11T14:21:35.207Z,40.17
2022-10-11T14:24:05.769Z,41.88
2022-10-11T14:26:38.535Z,43.72
2022-10-11T14:29:27.587Z,44.67
2022-10-11T14:31:59.651Z,41.78
2022-10-11T14:34:27.689Z,48.13
2022-10-11T14:36:55.209Z,44.83
2022-10-11T14:39:25.113Z,47.22
2022-10-11T14:41:53.217Z,47.88
2022-10-11T14:44:21.912Z,43.55
2022-10-11T14:46:50.900Z,43.88
2022-10-11T14:49:20.472Z,43.25
2022-10-11T14:51:50.326Z,41.38
2022-10-11T14:54:19.150Z,50.08
2022-10-11T14:56:47.443Z,43.30
2022-10-11T14:59:16.940Z,51.50
2022-10-11T15:01:45.242Z,45.72
2022-10-11T15:04:12.361Z,50.20
2022-10-11T15:06:41.899Z,54.92
2022-10-11T15:09:08.734Z,60.65
2022-10-11T15:11:38.040Z,57.65
2022-10-11T15:14:06.105Z,64.45
2022-10-11T15:16:34.794Z,71.82
2022-10-11T15:19:01.645Z,70.63
2022-10-11T15:21:29.369Z,70.93
2022-10-11T15:23:57.176Z,71.35
2022-10-11T15:26:28.149Z,80.00
2022-10-11T15:28:57.442Z,71.70
2022-10-11T15:31:24.441Z,72.05
2022-10-11T15:33:53.202Z,72.35
2022-10-11T15:36:22.559Z,75.50
2022-10-11T15:38:50.284Z,92.28
2022-10-11T15:41:19.941Z,80.90
2022-10-11T15:43:50.504Z,87.10
2022-10-11T15:46:22.302Z,73.53
2022-10-11T15:51:18.230Z,81.32
2022-10-11T15:53:45.531Z,71.45
2022-10-11T15:56:18.911Z,81.25
2022-10-11T15:58:46.613Z,75.65
2022-10-11T16:01:16.619Z,78.82
2022-10-11T16:03:44.496Z,68.40
2022-10-11T16:06:12.092Z,76.30
2022-10-11T16:08:40.061Z,86.22
2022-10-11T16:11:08.712Z,85.50
2022-10-11T16:13:37.290Z,85.57
2022-10-11T16:16:06.311Z,97.82
2022-10-11T16:18:35.600Z,80.47
2022-10-11T16:21:06.989Z,83.45
2022-10-11T16:23:34.643Z,89.18
2022-10-11T16:26:04.423Z,92.78
2022-10-11T16:28:32.856Z,96.18
2022-10-11T16:31:05.492Z,82.78
2022-10-11T16:33:33.072Z,85.85
2022-10-11T16:36:19.567Z,100.18
2022-10-11T16:38:47.114Z,91.50
2022-10-11T16:41:13.835Z,88.57
2022-10-11T16:43:41.741Z,107.78
2022-10-11T16:46:11.124Z,104.00
2022-10-11T16:48:40.139Z,95.45
2022-10-11T16:51:08.034Z,101.10
2022-10-11T16:53:38.070Z,93.13
2022-10-11T16:56:07.261Z,96.90
2022-10-11T16:58:36.840Z,101.32
2022-10-11T17:01:09.134Z,110.03
2022-10-11T17:03:36.990Z,106.53
2022-10-11T17:06:04.780Z,100.45
2022-10-11T17:08:32.540Z,94.57
2022-10-11T17:10:59.317Z,102.35
2022-10-11T17:13:27.144Z,97.75
2022-10-11T17:15:53.871Z,99.03
2022-10-11T17:18:21.204Z,99.03
2022-10-11T17:20:47.910Z,111.60
2022-10-11T17:23:15.469Z,113.22
2022-10-11T17:25:43.343Z,107.60
2022-10-11T17:28:10.035Z,112.47
2022-10-11T17:30:37.578Z,117.38
2022-10-11T17:33:04.242Z,109.95
2022-10-11T17:35:33.133Z,107.05
2022-10-11T17:38:05.118Z,113.88
2022-10-11T17:40:33.608Z,99.03
2022-10-11T17:43:00.369Z,102.18
2022-10-11T17:45:28.139Z,87.00
2022-10-11T17:47:54.980Z,108.57
2022-10-11T17:50:23.483Z,106.93
2022-10-11T17:52:50.140Z,105.43
2022-10-11T17:55:18.298Z,115.25
2022-10-11T17:57:45.748Z,111.93
2022-10-11T18:00:14.225Z,105.97
2022-10-11T18:02:41.561Z,111.28
2022-10-11T18:05:09.288Z,113.97
2022-10-11T18:07:35.943Z,101.35
2022-10-11T18:10:04.071Z,109.65
2022-10-11T18:12:30.913Z,112.63
2022-10-11T18:14:58.752Z,118.35
2022-10-11T18:17:25.490Z,111.15
2022-10-11T18:19:52.836Z,113.07
2022-10-11T18:22:19.434Z,118.32
2022-10-11T18:24:46.717Z,112.68
2022-10-11T18:27:13.488Z,100.53
2022-10-11T18:29:40.810Z,108.10
2022-10-11T18:32:07.365Z,112.13
2022-10-11T18:34:34.832Z,116.50
2022-10-11T18:37:01.923Z,110.07
2022-10-11T18:39:30.987Z,109.15
2022-10-11T18:41:57.635Z,113.30
2022-10-11T18:44:25.077Z,114.78
2022-10-11T18:46:51.912Z,114.00
2022-10-11T18:49:18.574Z,115.20
2022-10-11T18:51:47.116Z,108.40
2022-10-11T18:54:20.333Z,109.82
2022-10-11T18:56:49.696Z,120.22
2022-10-11T18:59:16.584Z,112.82
2022-10-11T19:01:45.815Z,114.20
2022-10-11T19:04:16.173Z,115.30
2022-10-11T19:06:54.333Z,107.13
2022-10-11T19:09:24.410Z,94.38
2022-10-11T19:12:00.241Z,94.28
2022-10-11T19:14:30.322Z,111.85
2022-10-11T19:16:58.097Z,101.95
2022-10-11T19:19:29.247Z,112.22
2022-10-11T19:21:56.776Z,102.47
2022-10-11T19:24:25.846Z,94.45
2022-10-11T19:27:01.190Z,111.78
2022-10-11T19:29:29.261Z,116.35
2022-10-11T19:31:59.814Z,96.70
2022-10-11T19:34:28.039Z,108.05
2022-10-11T19:36:57.240Z,126.15
2022-10-11T19:39:24.983Z,110.50
2022-10-11T19:41:53.130Z,108.93
2022-10-11T19:44:20.224Z,105.22
2022-10-11T19:46:51.930Z,110.22
2022-10-11T19:49:21.542Z,117.07
2022-10-11T19:51:48.935Z,103.63
2022-10-11T19:54:17.112Z,103.45
2022-10-11T19:56:45.464Z,102.90
2022-10-11T19:59:12.782Z,98.38
2022-10-11T20:01:41.085Z,101.20
2022-10-11T20:04:22.635Z,106.85
2022-10-11T20:06:59.309Z,101.82
2022-10-11T20:09:30.636Z,110.55
2022-10-11T20:12:03.065Z,106.53
2022-10-11T20:14:29.683Z,115.60
2022-10-11T20:16:57.157Z,111.93
2022-10-11T20:19:30.695Z,118.07
2022-10-11T20:21:59.893Z,107.57
2022-10-11T20:24:28.981Z,111.63
2022-10-11T20:26:57.184Z,105.68
2022-10-11T20:29:27.245Z,104.15
2022-10-11T20:31:54.780Z,103.95
2022-10-11T20:34:21.353Z,90.55
2022-10-11T20:36:49.483Z,97.13
2022-10-11T20:39:16.869Z,94.40
2022-10-11T20:41:44.610Z,107.80
2022-10-11T20:44:13.162Z,93.57
2022-10-11T20:46:40.885Z,97.78
2022-10-11T20:49:10.470Z,99.72
2022-10-11T20:51:40.265Z,99.95
2022-10-11T20:54:11.991Z,87.85
2022-10-11T20:56:39.770Z,86.30
2022-10-11T20:59:06.915Z,102.78
2022-10-11T21:01:38.291Z,112.05
2022-10-11T21:04:07.095Z,103.03
2022-10-11T21:06:34.790Z,109.40
2022-10-11T21:09:01.769Z,103.30
2022-10-11T21:11:30.897Z,119.82
2022-10-11T21:13:59.705Z,105.70
2022-10-11T21:16:27.420Z,106.85
2022-10-11T21:18:57.178Z,103.22
2022-10-11T21:21:24.367Z,107.28
2022-10-11T21:24:02.777Z,98.70
2022-10-11T21:26:30.487Z,103.63
2022-10-11T21:28:59.945Z,104.60
2022-10-11T21:31:31.078Z,111.65
2022-10-11T21:34:01.239Z,110.22
2022-10-11T21:36:28.435Z,101.95
2022-10-11T21:39:15.699Z,109.10
2022-10-11T21:41:42.366Z,102.88
2022-10-11T21:44:09.993Z,112.28
2022-10-11T21:47:04.933Z,109.53
2022-10-11T21:49:23.909Z,105.57
2022-10-11T21:51:51.056Z,110.60
2022-10-11T21:54:18.617Z,119.03
2022-10-11T21:56:45.361Z,107.22
2022-10-11T21:59:12.987Z,103.13
2022-10-11T22:01:41.283Z,86.30
2022-10-11T22:04:09.215Z,88.32
2022-10-11T22:06:36.828Z,93.50
2022-10-11T22:09:06.011Z,88.55
2022-10-11T22:11:32.724Z,85.57
2022-10-11T22:13:59.618Z,95.07
2022-10-11T22:16:26.235Z,103.32
2022-10-11T22:18:56.105Z,106.28
2022-10-11T22:21:23.844Z,91.03
2022-10-11T22:23:52.396Z,89.43
2022-10-11T22:26:21.631Z,101.32
2022-10-11T22:28:48.761Z,98.70
2022-10-11T22:31:17.511Z,113.30
2022-10-11T22:36:12.987Z,114.53
2022-10-11T22:38:41.484Z,107.03
2022-10-11T22:41:08.829Z,106.55
2022-10-11T22:43:35.671Z,100.90
2022-10-11T22:46:02.647Z,107.57
2022-10-11T22:48:29.870Z,112.03
2022-10-11T22:50:56.528Z,101.93
2022-10-11T22:53:23.189Z,87.40
2022-10-11T22:55:49.824Z,91.63
2022-10-11T22:58:16.455Z,100.05
2022-10-11T23:00:43.320Z,113.55
2022-10-11T23:03:14.183Z,120.90
2022-10-11T23:05:41.005Z,110.73
2022-10-11T23:08:09.508Z,108.25
2022-10-11T23:10:40.083Z,102.70
2022-10-11T23:13:07.029Z,108.05
2022-10-11T23:15:33.591Z,107.38
2022-10-11T23:18:00.287Z,111.20
2022-10-11T23:20:26.996Z,105.97
2022-10-11T23:22:53.676Z,110.65
2022-10-11T23:25:20.301Z,108.75
2022-10-11T23:27:46.863Z,118.78
2022-10-11T23:30:14.324Z,124.32
2022-10-11T23:32:40.905Z,113.85
2022-10-11T23:35:07.887Z,120.35
2022-10-11T23:37:34.682Z,117.45
2022-10-11T23:40:01.535Z,129.50
2022-10-11T23:42:28.170Z,109.55
2022-10-11T23:44:54.793Z,132.48
2022-10-11T23:47:21.409Z,128.05
2022-10-11T23:49:47.969Z,129.45
2022-10-11T23:52:14.575Z,137.93
2022-10-11T23:54:41.205Z,156.93
2022-10-11T23:57:07.798Z,145.77
2022-10-11T23:59:34.379Z,139.18
